createdAt,value
2019-04-20T00:00:06.153Z,0.00
2019-04-20T00:01:03.358Z,0.00
2019-04-20T00:02:08.242Z,0.00
2019-04-20T00:03:03.396Z,0.00
2019-04-20T00:04:01.649Z,0.00
2019-04-20T00:05:01.642Z,0.00
2019-04-20T00:06:01.631Z,0.00
2019-04-20T00:07:01.987Z,0.00
2019-04-20T00:08:11.663Z,0.00
2019-04-20T00:09:07.358Z,0.00
2019-04-20T00:10:09.843Z,0.00
2019-04-20T00:11:10.587Z,0.00
2019-04-20T00:12:10.756Z,0.00
2019-04-20T00:13:16.389Z,0.00
2019-04-20T00:14:09.224Z,0.00
2019-04-20T00:15:02.952Z,0.00
2019-04-20T00:16:02.035Z,0.00
2019-04-20T00:17:01.503Z,0.00
2019-04-20T00:18:05.028Z,0.00
2019-04-20T00:19:05.007Z,0.00
2019-04-20T00:20:09.274Z,0.00
2019-04-20T00:21:08.150Z,0.00
2019-04-20T00:22:07.920Z,0.00
2019-04-20T00:23:03.724Z,0.00
2019-04-20T00:24:12.947Z,0.00
2019-04-20T00:25:07.132Z,0.00
2019-04-20T00:26:11.089Z,0.00
2019-04-20T00:27:25.753Z,0.00
2019-04-20T00:28:22.444Z,0.00
2019-04-20T00:29:21.326Z,0.00
2019-04-20T00:30:25.958Z,0.00
2019-04-20T00:31:20.681Z,0.00
2019-04-20T00:32:13.069Z,0.00
2019-04-20T00:33:14.840Z,0.00
2019-04-20T00:34:11.552Z,0.00
2019-04-20T00:35:02.313Z,0.00
2019-04-20T00:36:01.299Z,0.00
2019-04-20T00:37:02.297Z,0.00
2019-04-20T00:38:01.331Z,0.00
2019-04-20T00:39:05.761Z,0.00
2019-04-20T00:40:03.635Z,0.00
2019-04-20T00:41:05.621Z,0.00
2019-04-20T00:42:06.541Z,0.00
2019-04-20T00:43:03.025Z,0.00
2019-04-20T00:44:06.842Z,0.00
2019-04-20T00:45:10.088Z,0.00
2019-04-20T00:46:11.187Z,0.00
2019-04-20T00:47:13.362Z,0.00
2019-04-20T00:48:08.004Z,0.00
2019-04-20T00:49:17.660Z,0.00
2019-04-20T00:50:22.861Z,0.00
2019-04-20T00:51:27.821Z,0.00
2019-04-20T00:52:30.765Z,0.00
2019-04-20T00:53:12.414Z,0.00
2019-04-20T00:54:03.637Z,0.00
2019-04-20T00:55:02.352Z,0.00
2019-04-20T00:56:01.348Z,0.00
2019-04-20T00:57:13.470Z,0.00
2019-04-20T00:58:11.785Z,0.00
2019-04-20T00:59:14.452Z,0.00
2019-04-20T01:00:22.896Z,0.00
2019-04-20T01:01:20.279Z,0.00
2019-04-20T01:02:16.853Z,0.00
2019-04-20T01:03:15.724Z,0.00
2019-04-20T01:04:20.276Z,0.00
2019-04-20T01:05:19.967Z,0.00
2019-04-20T01:06:24.776Z,0.00
2019-04-20T01:07:15.471Z,0.00
2019-04-20T01:08:04.847Z,0.00
2019-04-20T01:09:01.317Z,0.00
2019-04-20T01:10:00.932Z,0.00
2019-04-20T01:11:01.532Z,0.00
2019-04-20T01:12:03.238Z,0.00
2019-04-20T01:13:08.671Z,0.00
2019-04-20T01:14:06.033Z,0.00
2019-04-20T01:15:05.800Z,0.00
2019-04-20T01:16:08.460Z,0.00
2019-04-20T01:17:11.358Z,0.00
2019-04-20T01:18:01.825Z,0.00
2019-04-20T01:19:00.831Z,0.00
2019-04-20T01:20:00.804Z,0.00
2019-04-20T01:21:06.740Z,0.00
2019-04-20T01:22:09.150Z,0.00
2019-04-20T01:23:07.548Z,0.00
2019-04-20T01:24:04.642Z,0.00
2019-04-20T01:25:09.766Z,0.00
2019-04-20T01:26:07.514Z,0.00
2019-04-20T01:27:04.122Z,0.00
2019-04-20T01:28:13.049Z,0.00
2019-04-20T01:29:12.155Z,0.00
2019-04-20T01:30:10.768Z,0.00
2019-04-20T01:31:15.768Z,0.00
2019-04-20T01:32:13.804Z,0.00
2019-04-20T01:33:15.996Z,0.00
2019-04-20T01:34:08.274Z,0.00
2019-04-20T01:35:18.354Z,0.00
2019-04-20T01:36:21.571Z,0.00
2019-04-20T01:37:17.974Z,0.00
2019-04-20T01:38:23.604Z,0.00
2019-04-20T01:39:13.809Z,0.00
2019-04-20T01:40:04.507Z,0.00
2019-04-20T01:41:01.238Z,0.00
2019-04-20T01:42:00.567Z,0.00
2019-04-20T01:43:01.583Z,0.00
2019-04-20T01:44:00.587Z,0.00
2019-04-20T01:45:02.064Z,0.00
2019-04-20T01:46:11.225Z,0.00
2019-04-20T01:47:04.869Z,0.00
2019-04-20T01:48:03.019Z,0.00
2019-04-20T01:49:07.943Z,0.00
2019-04-20T01:50:08.527Z,0.00
2019-04-20T01:51:07.376Z,0.00
2019-04-20T01:52:10.964Z,0.00
2019-04-20T01:53:15.030Z,0.00
2019-04-20T01:54:15.942Z,0.00
2019-04-20T01:55:15.764Z,0.00
2019-04-20T01:56:18.145Z,0.00
2019-04-20T01:57:12.801Z,0.00
2019-04-20T01:58:17.854Z,0.00
2019-04-20T01:59:16.180Z,0.00
2019-04-20T02:00:09.281Z,0.00
2019-04-20T02:01:09.695Z,0.00
2019-04-20T02:02:05.168Z,0.00
2019-04-20T02:03:03.677Z,0.00
2019-04-20T02:04:03.118Z,0.00
2019-04-20T02:05:08.802Z,0.00
2019-04-20T02:06:07.487Z,0.00
2019-04-20T02:07:03.304Z,0.00
2019-04-20T02:08:00.384Z,0.00
2019-04-20T02:09:06.475Z,0.00
2019-04-20T02:10:05.039Z,0.00
2019-04-20T02:11:05.296Z,0.00
2019-04-20T02:12:07.672Z,0.00
2019-04-20T02:13:03.384Z,0.00
2019-04-20T02:14:03.757Z,0.00
2019-04-20T02:15:04.761Z,0.00
2019-04-20T02:16:14.036Z,0.00
2019-04-20T02:17:11.741Z,0.00
2019-04-20T02:18:15.076Z,0.00
2019-04-20T02:19:19.846Z,0.00
2019-04-20T02:20:22.816Z,0.00
2019-04-20T02:21:19.919Z,0.00
2019-04-20T02:22:13.680Z,0.00
2019-04-20T02:23:16.248Z,0.00
2019-04-20T02:24:05.520Z,0.00
2019-04-20T02:25:01.731Z,0.00
2019-04-20T02:26:00.857Z,0.00
2019-04-20T02:27:00.072Z,0.00
2019-04-20T02:28:17.560Z,0.00
2019-04-20T02:29:27.666Z,0.00
2019-04-20T02:30:31.920Z,0.00
2019-04-20T02:32:47.321Z,0.00
2019-04-20T02:33:43.111Z,0.00
2019-04-20T02:34:40.142Z,0.00
2019-04-20T02:35:36.208Z,0.00
2019-04-20T02:36:47.864Z,0.00
2019-04-20T02:37:49.389Z,0.00
2019-04-20T02:38:54.340Z,0.00
2019-04-20T02:39:39.383Z,0.00
2019-04-20T02:40:39.345Z,0.00
2019-04-20T02:42:46.942Z,0.00
2019-04-20T02:43:49.786Z,0.00
2019-04-20T02:46:33.384Z,0.00
2019-04-20T02:47:43.294Z,0.00
2019-04-20T02:48:31.819Z,0.00
2019-04-20T02:49:36.253Z,0.00
2019-04-20T02:51:39.364Z,0.00
2019-04-20T02:52:42.167Z,0.00
2019-04-20T02:54:28.482Z,0.00
2019-04-20T02:55:33.976Z,0.00
2019-04-20T02:58:39.071Z,0.00
2019-04-20T03:00:31.334Z,0.00
2019-04-20T03:01:23.330Z,0.00
2019-04-20T03:02:18.373Z,0.00
2019-04-20T03:03:15.403Z,0.00
2019-04-20T03:04:04.653Z,0.00
2019-04-20T03:05:13.600Z,0.00
2019-04-20T03:06:16.683Z,0.00
2019-04-20T03:07:15.627Z,0.00
2019-04-20T03:08:17.635Z,0.00
2019-04-20T03:09:36.165Z,0.00
2019-04-20T03:10:17.963Z,0.00
2019-04-20T03:11:37.861Z,0.00
2019-04-20T03:12:31.612Z,0.00
2019-04-20T03:13:20.933Z,0.00
2019-04-20T03:14:19.065Z,0.00
2019-04-20T03:15:21.836Z,0.00
2019-04-20T03:16:21.916Z,0.00
2019-04-20T03:17:30.044Z,0.00
2019-04-20T03:18:21.310Z,0.00
2019-04-20T03:19:18.616Z,0.00
2019-04-20T03:20:23.105Z,0.00
2019-04-20T03:21:27.000Z,0.00
2019-04-20T03:23:01.060Z,0.00
2019-04-20T03:24:28.213Z,0.00
2019-04-20T03:25:22.625Z,0.00
2019-04-20T03:26:21.372Z,0.00
2019-04-20T03:27:19.531Z,0.00
2019-04-20T03:28:18.249Z,0.00
2019-04-20T03:29:12.806Z,0.00
2019-04-20T03:31:01.408Z,0.00
2019-04-20T03:31:55.617Z,0.00
2019-04-20T03:32:53.464Z,0.00
2019-04-20T03:33:44.956Z,0.00
2019-04-20T03:34:47.452Z,0.00
2019-04-20T03:35:23.841Z,0.00
2019-04-20T03:36:25.194Z,0.00
2019-04-20T03:37:26.697Z,0.00
2019-04-20T03:38:19.833Z,0.00
2019-04-20T03:39:19.097Z,0.00
2019-04-20T03:40:12.885Z,0.00
2019-04-20T03:41:12.193Z,0.00
2019-04-20T03:42:01.099Z,0.00
2019-04-20T03:42:59.246Z,0.00
2019-04-20T03:44:04.475Z,0.00
2019-04-20T03:45:06.134Z,0.00
2019-04-20T03:46:06.532Z,0.00
2019-04-20T03:47:05.444Z,0.00
2019-04-20T03:48:09.170Z,0.00
2019-04-20T03:49:22.699Z,0.00
2019-04-20T03:50:26.059Z,0.00
2019-04-20T03:51:28.045Z,0.00
2019-04-20T03:52:21.436Z,0.00
2019-04-20T03:53:23.045Z,0.00
2019-04-20T03:54:18.143Z,0.00
2019-04-20T03:55:23.960Z,0.00
2019-04-20T03:56:26.415Z,0.00
2019-04-20T03:57:21.402Z,0.00
2019-04-20T03:58:18.622Z,0.00
2019-04-20T03:59:11.714Z,0.00
2019-04-20T04:00:18.908Z,0.00
2019-04-20T04:01:27.465Z,0.00
2019-04-20T04:02:34.673Z,0.00
2019-04-20T04:03:31.782Z,0.00
2019-04-20T04:04:21.471Z,0.00
2019-04-20T04:05:19.327Z,0.00
2019-04-20T04:06:12.676Z,0.00
2019-04-20T04:07:03.099Z,0.00
2019-04-20T04:08:10.340Z,0.00
2019-04-20T04:09:12.263Z,0.00
2019-04-20T04:10:16.003Z,0.00
2019-04-20T04:11:18.855Z,5.62
2019-04-20T04:12:12.241Z,5.62
2019-04-20T04:13:01.085Z,5.62
2019-04-20T04:13:58.909Z,5.62
2019-04-20T04:14:59.832Z,5.62
2019-04-20T04:16:04.409Z,5.62
2019-04-20T04:17:02.608Z,11.25
2019-04-20T04:18:05.988Z,11.25
2019-04-20T04:19:10.022Z,11.25
2019-04-20T04:20:05.074Z,11.25
2019-04-20T04:21:06.307Z,11.25
2019-04-20T04:22:13.824Z,16.88
2019-04-20T04:23:16.695Z,16.88
2019-04-20T04:24:14.292Z,16.88
2019-04-20T04:25:13.183Z,22.50
2019-04-20T04:26:17.569Z,22.50
2019-04-20T04:27:15.028Z,22.50
2019-04-20T04:28:15.213Z,22.50
2019-04-20T04:29:21.413Z,28.12
2019-04-20T04:30:14.139Z,28.12
2019-04-20T04:31:17.629Z,28.12
2019-04-20T04:32:33.070Z,33.75
2019-04-20T04:33:40.266Z,33.75
2019-04-20T04:34:20.637Z,39.38
2019-04-20T04:35:14.140Z,39.38
2019-04-20T04:36:15.494Z,45.00
2019-04-20T04:37:20.528Z,45.00
2019-04-20T04:38:24.041Z,50.62
2019-04-20T04:39:22.879Z,45.00
2019-04-20T04:40:27.868Z,50.62
2019-04-20T04:41:23.954Z,50.62
2019-04-20T04:42:22.275Z,56.25
2019-04-20T04:43:23.211Z,61.88
2019-04-20T04:44:15.143Z,67.50
2019-04-20T04:45:04.845Z,67.50
2019-04-20T04:45:59.677Z,73.12
2019-04-20T04:47:03.136Z,78.75
2019-04-20T04:47:59.815Z,84.38
2019-04-20T04:49:08.389Z,84.38
2019-04-20T04:50:07.487Z,84.38
2019-04-20T04:51:05.457Z,90.00
2019-04-20T04:52:06.177Z,95.62
2019-04-20T04:53:06.404Z,95.62
2019-04-20T04:54:05.817Z,101.25
2019-04-20T04:55:15.809Z,106.88
2019-04-20T04:56:05.539Z,106.88
2019-04-20T04:56:59.453Z,112.50
2019-04-20T04:57:58.439Z,118.12
2019-04-20T04:58:58.430Z,123.75
2019-04-20T04:59:59.446Z,129.38
2019-04-20T05:01:07.701Z,135.00
2019-04-20T05:02:00.486Z,135.00
2019-04-20T05:03:06.966Z,135.00
2019-04-20T05:04:23.053Z,140.62
2019-04-20T05:05:17.964Z,140.62
2019-04-20T05:06:20.901Z,140.62
2019-04-20T05:07:11.245Z,146.25
2019-04-20T05:08:10.092Z,151.88
2019-04-20T05:09:03.188Z,157.50
2019-04-20T05:09:59.301Z,157.50
2019-04-20T05:10:58.404Z,163.12
2019-04-20T05:12:05.371Z,163.12
2019-04-20T05:12:59.269Z,168.75
2019-04-20T05:14:03.351Z,174.38
2019-04-20T05:15:07.941Z,180.00
2019-04-20T05:16:13.542Z,185.62
2019-04-20T05:17:15.136Z,196.88
2019-04-20T05:18:18.263Z,208.12
2019-04-20T05:19:21.955Z,213.75
2019-04-20T05:20:17.118Z,219.38
2019-04-20T05:21:20.781Z,219.38
2019-04-20T05:22:20.573Z,225.00
2019-04-20T05:23:12.593Z,230.62
2019-04-20T05:24:17.476Z,230.62
2019-04-20T05:25:20.309Z,241.88
2019-04-20T05:26:22.665Z,247.50
2019-04-20T05:27:20.713Z,247.50
2019-04-20T05:28:13.370Z,247.50
2019-04-20T05:29:08.774Z,247.50
2019-04-20T05:29:59.238Z,253.12
2019-04-20T05:31:02.821Z,247.50
2019-04-20T05:32:05.892Z,247.50
2019-04-20T05:33:06.070Z,253.12
2019-04-20T05:34:20.460Z,253.12
2019-04-20T05:35:24.068Z,258.75
2019-04-20T05:36:18.140Z,258.75
2019-04-20T05:37:29.746Z,258.75
2019-04-20T05:38:26.439Z,264.38
2019-04-20T05:40:21.883Z,270.00
2019-04-20T05:41:16.949Z,275.62
2019-04-20T05:42:28.447Z,281.25
2019-04-20T05:43:15.456Z,286.88
2019-04-20T05:44:12.746Z,286.88
2019-04-20T05:45:18.133Z,292.50
2019-04-20T05:46:22.072Z,298.12
2019-04-20T05:47:11.311Z,303.75
2019-04-20T05:48:14.290Z,303.75
2019-04-20T05:49:22.011Z,309.38
2019-04-20T05:50:09.649Z,309.38
2019-04-20T05:51:26.895Z,315.00
2019-04-20T05:52:30.770Z,315.00
2019-04-20T05:53:20.481Z,320.62
2019-04-20T05:54:23.331Z,320.62
2019-04-20T05:55:20.931Z,326.25
2019-04-20T05:56:17.302Z,326.25
2019-04-20T05:57:27.695Z,326.25
2019-04-20T05:58:22.337Z,331.88
2019-04-20T05:59:15.277Z,326.25
2019-04-20T06:00:23.482Z,326.25
2019-04-20T06:01:22.854Z,326.25
2019-04-20T06:02:23.425Z,331.88
2019-04-20T06:03:18.789Z,331.88
2019-04-20T06:04:29.627Z,331.88
2019-04-20T06:05:24.077Z,337.50
2019-04-20T06:06:15.162Z,343.12
2019-04-20T06:07:21.148Z,343.12
2019-04-20T06:08:30.319Z,348.75
2019-04-20T06:09:22.733Z,348.75
2019-04-20T06:10:20.408Z,354.38
2019-04-20T06:11:23.782Z,354.38
2019-04-20T06:12:19.977Z,360.00
2019-04-20T06:13:14.761Z,360.00
2019-04-20T06:14:08.161Z,365.62
2019-04-20T06:15:11.864Z,365.62
2019-04-20T06:16:14.427Z,371.25
2019-04-20T06:17:21.125Z,371.25
2019-04-20T06:18:19.004Z,371.25
2019-04-20T06:19:26.337Z,376.88
2019-04-20T06:20:23.164Z,376.88
2019-04-20T06:21:27.268Z,382.50
2019-04-20T06:22:26.467Z,388.12
2019-04-20T06:23:24.143Z,388.12
2019-04-20T06:24:26.746Z,388.12
2019-04-20T06:26:35.505Z,393.75
2019-04-20T06:27:19.226Z,399.38
2019-04-20T06:28:20.664Z,399.38
2019-04-20T06:29:16.307Z,405.00
2019-04-20T06:30:13.760Z,405.00
2019-04-20T06:31:27.975Z,410.62
2019-04-20T06:32:27.165Z,410.62
2019-04-20T06:33:21.581Z,410.62
2019-04-20T06:35:30.337Z,421.88
2019-04-20T06:36:27.591Z,427.50
2019-04-20T06:37:18.839Z,427.50
2019-04-20T06:38:35.277Z,433.12
2019-04-20T06:39:20.016Z,427.50
2019-04-20T06:40:41.079Z,427.50
2019-04-20T06:41:32.862Z,427.50
2019-04-20T06:42:31.964Z,427.50
2019-04-20T06:43:20.849Z,433.12
2019-04-20T06:44:24.423Z,427.50
2019-04-20T06:45:28.522Z,427.50
2019-04-20T06:46:22.109Z,438.75
2019-04-20T06:47:21.202Z,433.12
2019-04-20T06:48:29.309Z,433.12
2019-04-20T06:49:22.894Z,433.12
2019-04-20T06:50:18.568Z,438.75
2019-04-20T06:51:18.837Z,438.75
2019-04-20T06:52:27.671Z,438.75
2019-04-20T06:53:28.555Z,444.38
2019-04-20T06:54:11.425Z,450.00
2019-04-20T06:55:13.899Z,444.38
2019-04-20T06:56:23.530Z,444.38
2019-04-20T06:57:22.616Z,444.38
2019-04-20T06:58:33.711Z,450.00
2019-04-20T06:59:27.710Z,444.38
2019-04-20T07:00:30.788Z,450.00
2019-04-20T07:01:19.737Z,450.00
2019-04-20T07:05:39.432Z,461.25
2019-04-20T07:06:50.602Z,466.88
2019-04-20T07:07:43.190Z,472.50
2019-04-20T07:08:56.906Z,472.50
2019-04-20T07:09:58.267Z,478.12
2019-04-20T07:10:44.506Z,472.50
2019-04-20T07:11:42.639Z,472.50
2019-04-20T07:12:37.893Z,472.50
2019-04-20T07:13:34.814Z,472.50
2019-04-20T07:14:34.556Z,472.50
2019-04-20T07:15:38.776Z,478.12
2019-04-20T07:16:45.109Z,478.12
2019-04-20T07:18:42.970Z,478.12
2019-04-20T07:19:40.533Z,483.75
2019-04-20T07:20:45.984Z,483.75
2019-04-20T07:21:52.161Z,489.38
2019-04-20T07:22:39.158Z,489.38
2019-04-20T07:23:48.292Z,489.38
2019-04-20T07:24:47.193Z,489.38
2019-04-20T07:25:42.215Z,495.00
2019-04-20T07:26:46.397Z,495.00
2019-04-20T07:27:43.173Z,495.00
2019-04-20T07:28:48.606Z,495.00
2019-04-20T07:29:46.061Z,495.00
2019-04-20T07:30:46.490Z,500.62
2019-04-20T07:31:39.379Z,500.62
2019-04-20T07:32:48.178Z,506.25
2019-04-20T07:33:47.007Z,506.25
2019-04-20T07:34:41.381Z,506.25
2019-04-20T07:35:41.402Z,506.25
2019-04-20T07:36:52.722Z,511.88
2019-04-20T07:38:09.015Z,511.88
2019-04-20T07:38:46.217Z,511.88
2019-04-20T07:40:39.798Z,523.12
2019-04-20T07:41:47.947Z,523.12
2019-04-20T07:42:47.002Z,528.75
2019-04-20T07:43:57.100Z,528.75
2019-04-20T07:44:52.669Z,534.38
2019-04-20T07:45:40.086Z,534.38
2019-04-20T07:46:59.881Z,540.00
2019-04-20T07:47:46.580Z,540.00
2019-04-20T07:48:42.198Z,545.62
2019-04-20T07:49:41.375Z,545.62
2019-04-20T07:50:35.133Z,551.25
2019-04-20T07:51:29.637Z,556.88
2019-04-20T07:52:33.919Z,556.88
2019-04-20T07:53:37.918Z,568.12
2019-04-20T07:54:50.662Z,573.75
2019-04-20T07:56:46.532Z,579.38
2019-04-20T07:57:37.471Z,585.00
2019-04-20T07:58:30.722Z,585.00
2019-04-20T07:59:30.560Z,590.62
2019-04-20T08:00:51.440Z,596.25
2019-04-20T08:01:45.266Z,601.88
2019-04-20T08:02:53.513Z,613.12
2019-04-20T08:03:44.448Z,618.75
2019-04-20T08:04:36.729Z,624.38
2019-04-20T08:06:37.991Z,675.00
2019-04-20T08:07:50.090Z,725.62
2019-04-20T08:08:49.056Z,804.38
2019-04-20T08:09:42.358Z,888.75
2019-04-20T08:10:51.065Z,939.38
2019-04-20T08:11:57.882Z,939.38
2019-04-20T08:12:55.726Z,933.75
2019-04-20T08:13:51.354Z,956.25
2019-04-20T08:14:59.921Z,995.62
2019-04-20T08:16:06.360Z,1085.62
2019-04-20T08:17:12.155Z,1226.25
2019-04-20T08:17:56.448Z,1389.38
2019-04-20T08:18:53.895Z,1546.88
2019-04-20T08:19:54.425Z,1704.38
2019-04-20T08:20:45.047Z,1743.75
2019-04-20T08:21:52.945Z,1687.50
2019-04-20T08:22:53.110Z,1586.25
2019-04-20T08:23:48.922Z,1501.88
2019-04-20T08:24:48.234Z,1428.75
2019-04-20T08:25:42.956Z,1383.75
2019-04-20T08:26:38.366Z,1350.00
2019-04-20T08:27:31.720Z,1350.00
2019-04-20T08:28:39.179Z,1350.00
2019-04-20T08:29:45.176Z,1310.62
2019-04-20T08:30:46.418Z,1248.75
2019-04-20T08:31:46.230Z,1248.75
2019-04-20T08:32:48.321Z,1271.25
2019-04-20T08:34:04.825Z,1209.38
2019-04-20T08:34:54.763Z,1130.62
2019-04-20T08:35:53.959Z,1153.12
2019-04-20T08:36:52.625Z,1147.50
2019-04-20T08:38:12.272Z,1108.12
2019-04-20T08:39:15.048Z,1113.75
2019-04-20T08:39:57.383Z,1080.00
2019-04-20T08:40:49.024Z,1018.12
2019-04-20T08:41:55.992Z,1001.25
2019-04-20T08:43:02.406Z,995.62
2019-04-20T08:43:57.252Z,1046.25
2019-04-20T08:45:48.489Z,1035.00
2019-04-20T08:46:59.661Z,1012.50
2019-04-20T08:48:00.184Z,1018.12
2019-04-20T08:48:50.864Z,1001.25
2019-04-20T08:49:57.057Z,1023.75
2019-04-20T08:50:50.725Z,1029.38
2019-04-20T08:51:55.625Z,1040.62
2019-04-20T08:53:51.734Z,990.00
2019-04-20T08:54:43.323Z,967.50
2019-04-20T08:55:46.604Z,973.12
2019-04-20T08:56:39.014Z,961.88
2019-04-20T08:57:31.315Z,905.62
2019-04-20T08:58:29.656Z,838.12
2019-04-20T08:59:32.018Z,798.75
2019-04-20T09:00:35.715Z,781.88
2019-04-20T09:01:32.698Z,770.62
2019-04-20T09:02:30.618Z,765.00
2019-04-20T09:03:37.527Z,770.62
2019-04-20T09:04:38.580Z,765.00
2019-04-20T09:05:42.369Z,770.62
2019-04-20T09:06:41.815Z,770.62
2019-04-20T09:07:35.208Z,770.62
2019-04-20T09:08:44.279Z,781.88
2019-04-20T09:09:49.168Z,776.25
2019-04-20T09:10:48.175Z,781.88
2019-04-20T09:11:49.135Z,781.88
2019-04-20T09:12:45.374Z,787.50
2019-04-20T09:13:39.053Z,787.50
2019-04-20T09:14:34.453Z,787.50
2019-04-20T09:15:29.946Z,787.50
2019-04-20T09:16:40.945Z,793.12
2019-04-20T09:17:38.968Z,798.75
2019-04-20T09:18:40.024Z,804.38
2019-04-20T09:19:44.554Z,810.00
2019-04-20T09:20:41.246Z,815.62
2019-04-20T09:21:39.012Z,832.50
2019-04-20T09:22:40.650Z,849.38
2019-04-20T09:23:49.617Z,973.12
2019-04-20T09:24:50.955Z,1350.00
2019-04-20T09:26:47.961Z,1721.25
2019-04-20T09:27:39.738Z,1749.38
2019-04-20T09:28:37.120Z,1816.88
2019-04-20T09:29:40.566Z,1873.12
2019-04-20T09:30:39.530Z,1957.50
2019-04-20T09:31:43.288Z,1946.25
2019-04-20T09:32:47.025Z,1951.88
2019-04-20T09:33:48.463Z,1980.00
2019-04-20T09:34:57.011Z,1946.25
2019-04-20T09:35:49.640Z,2058.75
2019-04-20T09:36:42.022Z,2137.50
2019-04-20T09:37:47.285Z,2137.50
2019-04-20T09:38:46.409Z,2126.25
2019-04-20T09:39:39.327Z,2188.12
2019-04-20T09:40:48.205Z,2199.38
2019-04-20T09:41:56.066Z,2171.25
2019-04-20T09:42:29.949Z,2193.75
2019-04-20T09:43:30.275Z,2233.12
2019-04-20T09:44:31.476Z,2317.50
2019-04-20T09:45:37.312Z,2306.25
2019-04-20T09:46:37.789Z,2250.00
2019-04-20T09:47:36.937Z,2295.00
2019-04-20T09:48:38.763Z,2317.50
2019-04-20T09:49:42.592Z,2289.38
2019-04-20T09:50:49.917Z,2345.62
2019-04-20T09:51:46.685Z,2351.25
2019-04-20T09:52:49.104Z,2362.50
2019-04-20T09:53:45.450Z,2390.62
2019-04-20T09:54:48.115Z,2430.00
2019-04-20T09:55:42.941Z,2424.38
2019-04-20T09:56:46.318Z,2430.00
2019-04-20T09:57:49.962Z,2306.25
2019-04-20T09:58:52.169Z,2233.12
2019-04-20T09:59:51.080Z,2154.38
2019-04-20T10:00:47.217Z,2075.62
2019-04-20T10:01:38.148Z,2176.88
2019-04-20T10:02:33.006Z,2390.62
2019-04-20T10:03:31.018Z,2536.88
2019-04-20T10:04:29.111Z,2581.88
2019-04-20T10:05:29.580Z,2655.00
2019-04-20T10:06:33.896Z,2604.38
2019-04-20T10:07:33.870Z,2565.00
2019-04-20T10:08:34.006Z,2632.50
2019-04-20T10:09:34.397Z,2514.38
2019-04-20T10:10:38.034Z,2435.62
2019-04-20T10:11:29.870Z,2396.25
2019-04-20T10:12:29.401Z,2497.50
2019-04-20T10:13:30.037Z,2626.88
2019-04-20T10:14:28.980Z,2649.38
2019-04-20T10:15:30.974Z,2711.25
2019-04-20T10:16:29.456Z,2683.12
2019-04-20T10:17:31.720Z,2598.75
2019-04-20T10:18:29.781Z,2638.12
2019-04-20T10:19:32.502Z,2615.62
2019-04-20T10:20:32.802Z,2621.25
2019-04-20T10:21:29.968Z,2559.38
2019-04-20T10:22:28.766Z,2553.75
2019-04-20T10:23:28.514Z,2542.50
2019-04-20T10:24:28.595Z,2559.38
2019-04-20T10:25:28.748Z,2688.75
2019-04-20T10:26:28.491Z,2761.88
2019-04-20T10:27:28.575Z,2716.88
2019-04-20T10:28:29.646Z,2671.88
2019-04-20T10:29:28.458Z,2576.25
2019-04-20T10:30:28.557Z,2649.38
2019-04-20T10:31:28.621Z,2761.88
2019-04-20T10:32:36.309Z,2716.88
2019-04-20T10:33:29.408Z,2756.25
2019-04-20T10:34:28.588Z,2835.00
2019-04-20T10:35:29.752Z,2767.50
2019-04-20T10:36:28.385Z,2874.38
2019-04-20T10:37:29.336Z,2992.50
2019-04-20T10:38:31.067Z,3060.00
2019-04-20T10:39:28.742Z,2958.75
2019-04-20T10:40:42.456Z,2868.75
2019-04-20T10:41:37.985Z,2919.38
2019-04-20T10:42:30.159Z,2970.00
2019-04-20T10:43:28.309Z,3043.12
2019-04-20T10:44:29.281Z,3026.25
2019-04-20T10:45:28.753Z,2964.38
2019-04-20T10:46:28.926Z,3020.62
2019-04-20T10:47:29.346Z,3121.88
2019-04-20T10:48:32.019Z,3093.75
2019-04-20T10:49:29.246Z,2992.50
2019-04-20T10:50:29.277Z,2975.62
2019-04-20T10:51:29.482Z,2986.88
2019-04-20T10:52:28.229Z,3048.75
2019-04-20T10:53:28.200Z,2970.00
2019-04-20T10:54:28.197Z,2986.88
2019-04-20T10:55:29.350Z,3099.38
2019-04-20T10:56:29.454Z,3138.75
2019-04-20T10:57:28.179Z,3116.25
2019-04-20T10:58:29.501Z,3076.88
2019-04-20T10:59:28.143Z,3048.75
2019-04-20T11:00:28.133Z,3009.38
2019-04-20T11:01:29.588Z,3031.88
2019-04-20T11:02:28.129Z,3138.75
2019-04-20T11:03:28.916Z,3116.25
2019-04-20T11:04:28.547Z,3172.50
2019-04-20T11:05:28.612Z,3211.88
2019-04-20T11:06:28.932Z,3150.00
2019-04-20T11:07:28.322Z,3076.88
2019-04-20T11:08:28.652Z,3054.38
2019-04-20T11:09:29.047Z,3076.88
2019-04-20T11:10:31.946Z,3150.00
2019-04-20T11:11:30.833Z,3105.00
2019-04-20T11:12:28.433Z,2795.62
2019-04-20T11:13:27.992Z,2643.75
2019-04-20T11:14:31.845Z,3003.75
2019-04-20T11:15:30.391Z,3206.25
2019-04-20T11:16:28.599Z,3054.38
2019-04-20T11:17:29.972Z,3105.00
2019-04-20T11:18:29.278Z,3138.75
2019-04-20T11:19:27.931Z,3150.00
2019-04-20T11:20:27.924Z,3189.38
2019-04-20T11:21:28.279Z,3178.12
2019-04-20T11:22:28.316Z,3301.88
2019-04-20T11:23:28.669Z,3172.50
2019-04-20T11:24:28.131Z,3172.50
2019-04-20T11:25:28.345Z,3206.25
2019-04-20T11:26:28.613Z,3206.25
2019-04-20T11:27:28.066Z,3150.00
2019-04-20T11:28:28.174Z,3166.88
2019-04-20T11:29:28.469Z,3121.88
2019-04-20T11:30:28.058Z,3093.75
2019-04-20T11:31:37.282Z,3189.38
2019-04-20T11:32:28.820Z,3195.00
2019-04-20T11:33:27.902Z,3133.12
2019-04-20T11:34:32.956Z,3082.50
2019-04-20T11:35:34.474Z,3200.62
2019-04-20T11:36:28.755Z,3240.00
2019-04-20T11:37:28.974Z,3268.12
2019-04-20T11:38:28.193Z,3318.75
2019-04-20T11:39:29.131Z,3234.38
2019-04-20T11:40:28.839Z,3195.00
2019-04-20T11:41:31.938Z,3048.75
2019-04-20T11:42:27.797Z,3003.75
2019-04-20T11:43:27.692Z,3155.62
2019-04-20T11:44:31.147Z,3290.62
2019-04-20T11:45:28.784Z,3352.50
2019-04-20T11:46:27.659Z,3256.88
2019-04-20T11:47:28.171Z,3127.50
2019-04-20T11:48:27.638Z,3245.62
2019-04-20T11:49:27.840Z,3318.75
2019-04-20T11:50:27.617Z,3358.12
2019-04-20T11:51:27.670Z,3335.62
2019-04-20T11:52:28.157Z,3403.12
2019-04-20T11:53:28.604Z,3414.38
2019-04-20T11:54:28.305Z,3420.00
2019-04-20T11:55:28.613Z,3397.50
2019-04-20T11:56:34.387Z,3330.00
2019-04-20T11:57:29.263Z,3307.50
2019-04-20T11:58:27.984Z,3279.38
2019-04-20T11:59:27.527Z,3285.00
2019-04-20T12:00:27.719Z,3391.88
2019-04-20T12:01:35.066Z,3420.00
2019-04-20T12:02:35.077Z,3431.25
2019-04-20T12:03:39.014Z,3476.25
2019-04-20T12:04:38.140Z,3436.88
2019-04-20T12:05:36.945Z,3436.88
2019-04-20T12:06:28.896Z,3335.62
2019-04-20T12:07:28.704Z,3403.12
2019-04-20T12:08:27.445Z,3425.62
2019-04-20T12:09:27.430Z,3425.62
2019-04-20T12:10:28.327Z,3391.88
2019-04-20T12:11:38.384Z,3358.12
2019-04-20T12:12:38.050Z,3335.62
2019-04-20T12:13:28.996Z,3448.12
2019-04-20T12:14:28.405Z,3369.38
2019-04-20T12:15:28.629Z,3307.50
2019-04-20T12:16:27.808Z,3425.62
2019-04-20T12:17:27.337Z,3318.75
2019-04-20T12:18:27.660Z,3341.25
2019-04-20T12:19:27.317Z,3560.62
2019-04-20T12:20:27.314Z,3313.12
2019-04-20T12:21:28.606Z,3566.25
2019-04-20T12:22:28.258Z,3836.25
2019-04-20T12:23:28.539Z,3313.12
2019-04-20T12:24:27.273Z,3335.62
2019-04-20T12:25:28.497Z,3684.38
2019-04-20T12:26:27.248Z,3352.50
2019-04-20T12:27:27.232Z,3532.50
2019-04-20T12:28:27.493Z,3909.38
2019-04-20T12:29:27.973Z,3515.62
2019-04-20T12:30:27.965Z,3363.75
2019-04-20T12:31:27.674Z,3735.00
2019-04-20T12:32:35.209Z,3453.75
2019-04-20T12:33:28.559Z,3228.75
2019-04-20T12:34:28.567Z,3645.00
2019-04-20T12:35:27.145Z,3684.38
2019-04-20T12:36:28.110Z,3397.50
2019-04-20T12:37:27.124Z,3566.25
2019-04-20T12:38:27.434Z,3706.88
2019-04-20T12:39:27.104Z,3375.00
2019-04-20T12:40:28.125Z,3234.38
2019-04-20T12:41:37.429Z,3622.50
2019-04-20T12:42:28.766Z,3796.88
2019-04-20T12:43:27.757Z,3465.00
2019-04-20T12:44:28.018Z,3228.75
2019-04-20T12:45:27.047Z,3448.12
2019-04-20T12:46:28.073Z,3616.88
2019-04-20T12:47:27.886Z,3459.38
2019-04-20T12:48:27.022Z,3313.12
2019-04-20T12:49:27.567Z,3538.12
2019-04-20T12:50:27.641Z,3690.00
2019-04-20T12:51:33.930Z,3183.75
2019-04-20T12:52:28.297Z,2851.88
2019-04-20T12:53:26.974Z,3391.88
2019-04-20T12:54:27.014Z,3577.50
2019-04-20T12:55:28.303Z,3701.25
2019-04-20T12:56:26.924Z,3560.62
2019-04-20T12:57:26.924Z,3453.75
2019-04-20T12:58:28.320Z,3515.62
2019-04-20T12:59:27.564Z,3538.12
2019-04-20T13:00:27.751Z,3729.38